Sweet Home, Arkansas
Current Conditions -  °F | °C
As of 8:53 AM on Tuesday 21 Oct 2014 (Local Time) from KLIT Reporting Station
Clear Clear  
Wind Chill: 64°   Ceiling: Unl
Heat Index: 64°   Visibility: 10mi
Dew Point: 57°   Wind: 3mph
Humidity: 78%   Direction: 340°NNW
Pressure: 30.13"   Gusts: NA
Location:  34.69°N, 92.24°W
Report Text: KLIT 211353Z 34003KT 10SM CLR 18/14 A3013 RMK AO2 SLP202 T01780139
Loading
Personal Weather Stations






























Interactive Weather Map
Tropical Storm Tracking
New forecast layout! Learn more

10-Day Weather Forecast

Advertisements
Track Severe Weather on mobile